sensor_id;sensor_type;location;lat;lon;timestamp;pressure;altitude;pressure_sealevel;temperature;humidity
54806;BME280;62866;55.776;37.496;2022-11-14T00:00:23;100238.44;;;2.02;81.72
54806;BME280;62866;55.776;37.496;2022-11-14T00:02:48;100236.91;;;1.99;81.57
54806;BME280;62866;55.776;37.496;2022-11-14T00:05:14;100233.41;;;1.99;80.93
54806;BME280;62866;55.776;37.496;2022-11-14T00:07:39;100238.69;;;1.87;80.48
54806;BME280;62866;55.776;37.496;2022-11-14T00:10:04;100243.25;;;1.85;80.72
54806;BME280;62866;55.776;37.496;2022-11-14T00:12:30;100239.31;;;1.91;80.73
54806;BME280;62866;55.776;37.496;2022-11-14T00:14:55;100239.44;;;1.89;80.29
54806;BME280;62866;55.776;37.496;2022-11-14T00:17:21;100243.25;;;1.85;80.21
54806;BME280;62866;55.776;37.496;2022-11-14T00:19:46;100241.22;;;1.89;79.83
54806;BME280;62866;55.776;37.496;2022-11-14T00:22:11;100236.78;;;1.89;79.26
54806;BME280;62866;55.776;37.496;2022-11-14T00:24:37;100254.97;;;1.92;79.54
54806;BME280;62866;55.776;37.496;2022-11-14T00:27:02;100253.94;;;1.84;79.70
54806;BME280;62866;55.776;37.496;2022-11-14T00:29:27;100264.59;;;1.82;79.14
54806;BME280;62866;55.776;37.496;2022-11-14T00:31:53;100260.78;;;1.75;79.83
54806;BME280;62866;55.776;37.496;2022-11-14T00:34:18;100265.78;;;1.78;79.26
54806;BME280;62866;55.776;37.496;2022-11-14T00:36:43;100262.09;;;1.81;78.78
54806;BME280;62866;55.776;37.496;2022-11-14T00:39:12;100270.56;;;1.84;78.43
54806;BME280;62866;55.776;37.496;2022-11-14T00:41:38;100268.09;;;1.83;77.90
54806;BME280;62866;55.776;37.496;2022-11-14T00:44:04;100266.13;;;1.85;77.88
54806;BME280;62866;55.776;37.496;2022-11-14T00:46:29;100271.63;;;1.93;78.25
54806;BME280;62866;55.776;37.496;2022-11-14T00:48:54;100271.41;;;1.96;77.75
54806;BME280;62866;55.776;37.496;2022-11-14T00:51:20;100276.22;;;1.91;77.42
54806;BME280;62866;55.776;37.496;2022-11-14T00:53:45;100279.31;;;1.85;77.80
54806;BME280;62866;55.776;37.496;2022-11-14T00:56:10;100282.09;;;1.83;77.41
54806;BME280;62866;55.776;37.496;2022-11-14T00:58:36;100281.25;;;1.72;77.41
54806;BME280;62866;55.776;37.496;2022-11-14T01:01:01;100294.44;;;1.72;77.73
54806;BME280;62866;55.776;37.496;2022-11-14T01:03:26;100288.78;;;1.76;77.35
54806;BME280;62866;55.776;37.496;2022-11-14T01:05:52;100286.66;;;1.70;77.21
54806;BME280;62866;55.776;37.496;2022-11-14T01:08:17;100290.84;;;1.62;76.70
54806;BME280;62866;55.776;37.496;2022-11-14T01:10:47;100303.28;;;1.48;77.18
54806;BME280;62866;55.776;37.496;2022-11-14T01:13:13;100303.63;;;1.44;76.98
54806;BME280;62866;55.776;37.496;2022-11-14T01:15:39;100306.63;;;1.39;76.91
54806;BME280;62866;55.776;37.496;2022-11-14T01:18:04;100302.06;;;1.30;76.76
54806;BME280;62866;55.776;37.496;2022-11-14T01:20:30;100301.81;;;1.22;77.10
54806;BME280;62866;55.776;37.496;2022-11-14T01:22:55;100305.03;;;1.26;76.60
54806;BME280;62866;55.776;37.496;2022-11-14T01:25:21;100305.75;;;1.28;77.03
54806;BME280;62866;55.776;37.496;2022-11-14T01:27:46;100313.34;;;1.32;76.76
54806;BME280;62866;55.776;37.496;2022-11-14T01:30:11;100314.28;;;1.31;76.53
54806;BME280;62866;55.776;37.496;2022-11-14T01:32:37;100320.50;;;1.30;76.71
54806;BME280;62866;55.776;37.496;2022-11-14T01:35:02;100311.53;;;1.33;76.29
54806;BME280;62866;55.776;37.496;2022-11-14T01:37:28;100317.50;;;1.35;76.58
54806;BME280;62866;55.776;37.496;2022-11-14T01:39:53;100324.25;;;1.39;76.58
54806;BME280;62866;55.776;37.496;2022-11-14T01:42:18;100337.19;;;1.42;75.83
54806;BME280;62866;55.776;37.496;2022-11-14T01:44:51;100338.84;;;1.43;76.17
54806;BME280;62866;55.776;37.496;2022-11-14T01:47:21;100342.81;;;1.48;75.47
54806;BME280;62866;55.776;37.496;2022-11-14T01:49:48;100346.28;;;1.49;75.99
54806;BME280;62866;55.776;37.496;2022-11-14T01:52:21;100353.63;;;1.57;75.91
54806;BME280;62866;55.776;37.496;2022-11-14T01:54:49;100360.44;;;1.59;75.68
54806;BME280;62866;55.776;37.496;2022-11-14T01:57:17;100360.31;;;1.61;75.98
54806;BME280;62866;55.776;37.496;2022-11-14T01:59:46;100371.59;;;1.63;75.26
54806;BME280;62866;55.776;37.496;2022-11-14T02:02:14;100376.50;;;1.56;75.08
54806;BME280;62866;55.776;37.496;2022-11-14T02:04:41;100367.38;;;1.49;74.33
54806;BME280;62866;55.776;37.496;2022-11-14T02:07:08;100386.41;;;1.41;74.42
54806;BME280;62866;55.776;37.496;2022-11-14T02:09:34;100368.03;;;1.29;72.90
54806;BME280;62866;55.776;37.496;2022-11-14T02:12:01;100380.72;;;1.24;70.84
54806;BME280;62866;55.776;37.496;2022-11-14T02:14:27;100392.53;;;1.18;70.31
54806;BME280;62866;55.776;37.496;2022-11-14T02:16:53;100385.38;;;1.20;70.35
54806;BME280;62866;55.776;37.496;2022-11-14T02:19:19;100376.72;;;1.18;69.01
54806;BME280;62866;55.776;37.496;2022-11-14T02:21:44;100388.56;;;1.12;69.35
54806;BME280;62866;55.776;37.496;2022-11-14T02:24:10;100399.56;;;1.06;69.48
54806;BME280;62866;55.776;37.496;2022-11-14T02:26:36;100390.47;;;1.10;69.48
54806;BME280;62866;55.776;37.496;2022-11-14T02:29:03;100390.03;;;1.17;69.27
54806;BME280;62866;55.776;37.496;2022-11-14T02:31:29;100386.66;;;1.14;69.41
54806;BME280;62866;55.776;37.496;2022-11-14T02:33:54;100380.19;;;1.07;69.07
54806;BME280;62866;55.776;37.496;2022-11-14T02:36:19;100390.09;;;1.04;67.28
54806;BME280;62866;55.776;37.496;2022-11-14T02:38:45;100385.66;;;1.04;68.42
54806;BME280;62866;55.776;37.496;2022-11-14T02:41:10;100384.09;;;1.02;68.32
54806;BME280;62866;55.776;37.496;2022-11-14T02:43:36;100389.75;;;1.08;68.89
54806;BME280;62866;55.776;37.496;2022-11-14T02:46:01;100397.19;;;1.14;68.88
54806;BME280;62866;55.776;37.496;2022-11-14T02:48:26;100396.34;;;1.14;68.58
54806;BME280;62866;55.776;37.496;2022-11-14T02:50:52;100391.81;;;1.16;68.21
54806;BME280;62866;55.776;37.496;2022-11-14T02:53:17;100397.69;;;1.20;66.82
54806;BME280;62866;55.776;37.496;2022-11-14T02:55:42;100393.88;;;1.24;67.56
54806;BME280;62866;55.776;37.496;2022-11-14T02:58:08;100403.81;;;1.20;66.90
54806;BME280;62866;55.776;37.496;2022-11-14T03:00:33;100407.84;;;1.13;66.95
54806;BME280;62866;55.776;37.496;2022-11-14T03:02:58;100409.00;;;1.09;66.72
54806;BME280;62866;55.776;37.496;2022-11-14T03:05:24;100406.84;;;1.03;67.19
54806;BME280;62866;55.776;37.496;2022-11-14T03:07:53;100401.47;;;1.04;67.42
54806;BME280;62866;55.776;37.496;2022-11-14T03:10:21;100418.72;;;1.08;66.55
54806;BME280;62866;55.776;37.496;2022-11-14T03:12:47;100412.72;;;1.06;65.84
54806;BME280;62866;55.776;37.496;2022-11-14T03:15:12;100398.00;;;1.04;65.17
54806;BME280;62866;55.776;37.496;2022-11-14T03:17:38;100413.19;;;1.00;65.35
54806;BME280;62866;55.776;37.496;2022-11-14T03:20:03;100414.47;;;0.95;66.07
54806;BME280;62866;55.776;37.496;2022-11-14T03:22:29;100420.09;;;1.01;66.29
54806;BME280;62866;55.776;37.496;2022-11-14T03:24:54;100410.41;;;1.02;66.03
54806;BME280;62866;55.776;37.496;2022-11-14T03:27:20;100409.16;;;1.07;66.52
54806;BME280;62866;55.776;37.496;2022-11-14T03:29:46;100414.06;;;1.12;66.37
54806;BME280;62866;55.776;37.496;2022-11-14T03:32:12;100426.63;;;1.08;65.53
54806;BME280;62866;55.776;37.496;2022-11-14T03:34:37;100418.47;;;1.11;65.57
54806;BME280;62866;55.776;37.496;2022-11-14T03:37:02;100428.69;;;1.16;65.55
54806;BME280;62866;55.776;37.496;2022-11-14T03:39:28;100438.59;;;1.12;65.17
54806;BME280;62866;55.776;37.496;2022-11-14T03:41:53;100430.72;;;1.12;65.26
54806;BME280;62866;55.776;37.496;2022-11-14T03:44:18;100437.97;;;1.09;65.55
54806;BME280;62866;55.776;37.496;2022-11-14T03:46:44;100435.03;;;1.13;65.89
54806;BME280;62866;55.776;37.496;2022-11-14T03:49:09;100441.88;;;1.16;65.84
54806;BME280;62866;55.776;37.496;2022-11-14T03:51:34;100435.97;;;1.12;65.94
54806;BME280;62866;55.776;37.496;2022-11-14T03:54:00;100441.97;;;1.14;65.53
54806;BME280;62866;55.776;37.496;2022-11-14T03:56:25;100447.69;;;1.08;65.57
54806;BME280;62866;55.776;37.496;2022-11-14T03:58:51;100440.50;;;1.10;65.80
54806;BME280;62866;55.776;37.496;2022-11-14T04:01:16;100439.09;;;1.18;65.52
54806;BME280;62866;55.776;37.496;2022-11-14T04:03:41;100448.69;;;1.19;65.52
54806;BME280;62866;55.776;37.496;2022-11-14T04:06:07;100446.41;;;1.14;64.46
54806;BME280;62866;55.776;37.496;2022-11-14T04:08:32;100459.41;;;1.04;64.80
54806;BME280;62866;55.776;37.496;2022-11-14T04:10:57;100449.31;;;0.98;64.78
54806;BME280;62866;55.776;37.496;2022-11-14T04:13:23;100446.69;;;0.98;65.76
54806;BME280;62866;55.776;37.496;2022-11-14T04:15:55;100445.94;;;0.96;65.17
54806;BME280;62866;55.776;37.496;2022-11-14T04:18:20;100455.34;;;0.88;65.27
54806;BME280;62866;55.776;37.496;2022-11-14T04:20:46;100451.78;;;0.76;65.35
54806;BME280;62866;55.776;37.496;2022-11-14T04:23:11;100464.94;;;0.76;65.59
54806;BME280;62866;55.776;37.496;2022-11-14T04:25:37;100462.97;;;0.80;65.21
54806;BME280;62866;55.776;37.496;2022-11-14T04:28:02;100470.00;;;0.79;65.84
54806;BME280;62866;55.776;37.496;2022-11-14T04:30:27;100462.66;;;0.71;65.50
54806;BME280;62866;55.776;37.496;2022-11-14T04:32:53;100463.72;;;0.69;65.73
54806;BME280;62866;55.776;37.496;2022-11-14T04:35:18;100465.84;;;0.64;65.38
54806;BME280;62866;55.776;37.496;2022-11-14T04:37:43;100479.84;;;0.64;65.35
54806;BME280;62866;55.776;37.496;2022-11-14T04:40:09;100481.53;;;0.65;65.71
54806;BME280;62866;55.776;37.496;2022-11-14T04:42:35;100477.81;;;0.68;65.92
54806;BME280;62866;55.776;37.496;2022-11-14T04:45:00;100493.22;;;0.61;65.99
54806;BME280;62866;55.776;37.496;2022-11-14T04:47:26;100483.72;;;0.59;65.80
54806;BME280;62866;55.776;37.496;2022-11-14T04:49:51;100483.97;;;0.56;65.68
54806;BME280;62866;55.776;37.496;2022-11-14T04:52:16;100484.81;;;0.56;65.55
54806;BME280;62866;55.776;37.496;2022-11-14T04:54:42;100493.00;;;0.52;65.76
54806;BME280;62866;55.776;37.496;2022-11-14T04:57:07;100497.56;;;0.50;66.20
54806;BME280;62866;55.776;37.496;2022-11-14T04:59:32;100494.28;;;0.46;65.91
54806;BME280;62866;55.776;37.496;2022-11-14T05:01:58;100501.53;;;0.43;66.08
54806;BME280;62866;55.776;37.496;2022-11-14T05:04:23;100506.19;;;0.39;65.79
54806;BME280;62866;55.776;37.496;2022-11-14T05:06:48;100513.66;;;0.32;66.04
54806;BME280;62866;55.776;37.496;2022-11-14T05:09:14;100519.13;;;0.29;66.20
54806;BME280;62866;55.776;37.496;2022-11-14T05:11:39;100526.50;;;0.24;66.46
54806;BME280;62866;55.776;37.496;2022-11-14T05:14:04;100528.59;;;0.19;66.48
54806;BME280;62866;55.776;37.496;2022-11-14T05:16:30;100522.59;;;0.17;66.61
54806;BME280;62866;55.776;37.496;2022-11-14T05:18:55;100524.69;;;0.12;66.44
54806;BME280;62866;55.776;37.496;2022-11-14T05:21:20;100536.78;;;0.02;66.58
54806;BME280;62866;55.776;37.496;2022-11-14T05:23:46;100533.53;;;-0.02;67.02
54806;BME280;62866;55.776;37.496;2022-11-14T05:26:13;100550.00;;;0.00;66.29
54806;BME280;62866;55.776;37.496;2022-11-14T05:28:38;100546.66;;;-0.02;66.66
54806;BME280;62866;55.776;37.496;2022-11-14T05:31:08;100561.50;;;-0.01;66.34
54806;BME280;62866;55.776;37.496;2022-11-14T05:33:33;100570.44;;;-0.03;66.57
54806;BME280;62866;55.776;37.496;2022-11-14T05:36:06;100576.53;;;-0.03;66.48
54806;BME280;62866;55.776;37.496;2022-11-14T05:38:32;100577.97;;;-0.11;66.64
54806;BME280;62866;55.776;37.496;2022-11-14T05:40:57;100585.13;;;-0.13;66.52
54806;BME280;62866;55.776;37.496;2022-11-14T05:43:23;100571.44;;;-0.18;66.88
54806;BME280;62866;55.776;37.496;2022-11-14T05:45:49;100581.03;;;-0.17;67.30
54806;BME280;62866;55.776;37.496;2022-11-14T05:48:14;100587.75;;;-0.13;67.07
54806;BME280;62866;55.776;37.496;2022-11-14T05:50:39;100599.75;;;-0.09;66.90
54806;BME280;62866;55.776;37.496;2022-11-14T05:53:05;100587.47;;;-0.09;66.98
54806;BME280;62866;55.776;37.496;2022-11-14T05:55:30;100592.16;;;-0.14;67.08
54806;BME280;62866;55.776;37.496;2022-11-14T05:57:58;100594.03;;;-0.16;66.62
54806;BME280;62866;55.776;37.496;2022-11-14T06:00:24;100617.34;;;-0.24;66.67
54806;BME280;62866;55.776;37.496;2022-11-14T06:02:54;100601.91;;;-0.28;66.20
54806;BME280;62866;55.776;37.496;2022-11-14T06:05:19;100594.91;;;-0.42;66.02
54806;BME280;62866;55.776;37.496;2022-11-14T06:07:45;100615.94;;;-0.42;66.42
54806;BME280;62866;55.776;37.496;2022-11-14T06:10:10;100620.88;;;-0.38;66.65
54806;BME280;62866;55.776;37.496;2022-11-14T06:12:37;100628.44;;;-0.33;66.31
54806;BME280;62866;55.776;37.496;2022-11-14T06:15:02;100628.94;;;-0.41;65.79
54806;BME280;62866;55.776;37.496;2022-11-14T06:17:28;100634.59;;;-0.47;66.43
54806;BME280;62866;55.776;37.496;2022-11-14T06:19:53;100624.84;;;-0.45;66.70
54806;BME280;62866;55.776;37.496;2022-11-14T06:22:18;100640.38;;;-0.42;66.63
54806;BME280;62866;55.776;37.496;2022-11-14T06:24:44;100637.03;;;-0.44;66.56
54806;BME280;62866;55.776;37.496;2022-11-14T06:27:09;100637.66;;;-0.40;66.58
54806;BME280;62866;55.776;37.496;2022-11-14T06:29:34;100638.91;;;-0.46;66.43
54806;BME280;62866;55.776;37.496;2022-11-14T06:32:00;100649.69;;;-0.50;66.11
54806;BME280;62866;55.776;37.496;2022-11-14T06:34:25;100656.00;;;-0.53;65.79
54806;BME280;62866;55.776;37.496;2022-11-14T06:36:51;100655.06;;;-0.52;66.39
54806;BME280;62866;55.776;37.496;2022-11-14T06:39:16;100657.56;;;-0.50;65.80
54806;BME280;62866;55.776;37.496;2022-11-14T06:41:42;100657.69;;;-0.52;65.61
54806;BME280;62866;55.776;37.496;2022-11-14T06:44:07;100664.72;;;-0.52;65.33
54806;BME280;62866;55.776;37.496;2022-11-14T06:46:33;100660.19;;;-0.50;65.05
54806;BME280;62866;55.776;37.496;2022-11-14T06:48:58;100660.41;;;-0.53;65.84
54806;BME280;62866;55.776;37.496;2022-11-14T06:51:23;100668.00;;;-0.49;65.57
54806;BME280;62866;55.776;37.496;2022-11-14T06:53:49;100659.38;;;-0.51;65.26
54806;BME280;62866;55.776;37.496;2022-11-14T06:56:15;100672.31;;;-0.48;65.20
54806;BME280;62866;55.776;37.496;2022-11-14T06:58:44;100668.94;;;-0.50;65.16
54806;BME280;62866;55.776;37.496;2022-11-14T07:01:11;100667.44;;;-0.54;64.65
54806;BME280;62866;55.776;37.496;2022-11-14T07:03:38;100664.81;;;-0.54;64.69
54806;BME280;62866;55.776;37.496;2022-11-14T07:06:04;100672.53;;;-0.51;65.27
54806;BME280;62866;55.776;37.496;2022-11-14T07:08:29;100666.13;;;-0.47;64.23
54806;BME280;62866;55.776;37.496;2022-11-14T07:11:01;100672.41;;;-0.49;64.58
54806;BME280;62866;55.776;37.496;2022-11-14T07:13:27;100684.59;;;-0.48;64.67
54806;BME280;62866;55.776;37.496;2022-11-14T07:15:53;100682.06;;;-0.50;64.67
54806;BME280;62866;55.776;37.496;2022-11-14T07:18:18;100681.97;;;-0.48;64.56
54806;BME280;62866;55.776;37.496;2022-11-14T07:20:44;100688.66;;;-0.43;65.03
54806;BME280;62866;55.776;37.496;2022-11-14T07:23:09;100680.75;;;-0.43;64.59
54806;BME280;62866;55.776;37.496;2022-11-14T07:25:35;100698.53;;;-0.33;64.33
54806;BME280;62866;55.776;37.496;2022-11-14T07:28:00;100693.00;;;-0.29;64.73
54806;BME280;62866;55.776;37.496;2022-11-14T07:30:25;100703.34;;;-0.26;64.55
54806;BME280;62866;55.776;37.496;2022-11-14T07:32:54;100704.19;;;-0.25;64.17
54806;BME280;62866;55.776;37.496;2022-11-14T07:35:20;100710.06;;;-0.22;63.55
54806;BME280;62866;55.776;37.496;2022-11-14T07:37:45;100703.03;;;-0.21;63.72
54806;BME280;62866;55.776;37.496;2022-11-14T07:40:10;100711.84;;;-0.22;63.68
54806;BME280;62866;55.776;37.496;2022-11-14T07:42:36;100717.69;;;-0.17;63.91
54806;BME280;62866;55.776;37.496;2022-11-14T07:45:01;100718.31;;;-0.14;63.76
54806;BME280;62866;55.776;37.496;2022-11-14T07:47:27;100713.81;;;-0.12;63.75
54806;BME280;62866;55.776;37.496;2022-11-14T07:49:52;100716.25;;;-0.09;63.45
54806;BME280;62866;55.776;37.496;2022-11-14T07:52:17;100716.78;;;-0.04;63.41
54806;BME280;62866;55.776;37.496;2022-11-14T07:54:43;100726.28;;;-0.01;63.79
54806;BME280;62866;55.776;37.496;2022-11-14T07:57:08;100711.34;;;-0.01;63.26
54806;BME280;62866;55.776;37.496;2022-11-14T07:59:33;100727.56;;;0.06;63.00
54806;BME280;62866;55.776;37.496;2022-11-14T08:01:59;100724.00;;;0.07;62.91
54806;BME280;62866;55.776;37.496;2022-11-14T08:04:24;100712.72;;;0.05;63.43
54806;BME280;62866;55.776;37.496;2022-11-14T08:06:50;100719.28;;;0.12;63.10
54806;BME280;62866;55.776;37.496;2022-11-14T08:09:15;100731.28;;;0.16;62.98
54806;BME280;62866;55.776;37.496;2022-11-14T08:11:40;100723.94;;;0.21;62.37
54806;BME280;62866;55.776;37.496;2022-11-14T08:14:12;100727.22;;;0.25;62.09
54806;BME280;62866;55.776;37.496;2022-11-14T08:16:37;100725.63;;;0.22;61.76
54806;BME280;62866;55.776;37.496;2022-11-14T08:19:03;100726.16;;;0.27;62.37
54806;BME280;62866;55.776;37.496;2022-11-14T08:21:28;100719.44;;;0.23;61.87
54806;BME280;62866;55.776;37.496;2022-11-14T08:23:53;100735.75;;;0.28;61.73
54806;BME280;62866;55.776;37.496;2022-11-14T08:26:19;100731.13;;;0.32;61.69
54806;BME280;62866;55.776;37.496;2022-11-14T08:28:44;100734.69;;;0.31;60.94
54806;BME280;62866;55.776;37.496;2022-11-14T08:31:09;100743.53;;;0.30;61.22
54806;BME280;62866;55.776;37.496;2022-11-14T08:33:35;100731.97;;;0.32;61.04
54806;BME280;62866;55.776;37.496;2022-11-14T08:36:01;100734.28;;;0.37;61.23
54806;BME280;62866;55.776;37.496;2022-11-14T08:38:26;100723.66;;;1.41;60.25
54806;BME280;62866;55.776;37.496;2022-11-14T08:40:52;100728.09;;;3.30;58.34
54806;BME280;62866;55.776;37.496;2022-11-14T08:43:17;100729.50;;;4.65;57.14
54806;BME280;62866;55.776;37.496;2022-11-14T08:45:42;100720.34;;;5.81;56.53
54806;BME280;62866;55.776;37.496;2022-11-14T08:48:08;100720.91;;;6.63;56.71
54806;BME280;62866;55.776;37.496;2022-11-14T08:50:34;100720.22;;;7.73;54.23
54806;BME280;62866;55.776;37.496;2022-11-14T08:52:59;100721.22;;;8.45;48.42
54806;BME280;62866;55.776;37.496;2022-11-14T08:55:24;100724.47;;;8.56;47.28
54806;BME280;62866;55.776;37.496;2022-11-14T08:57:49;100723.94;;;8.08;47.99
54806;BME280;62866;55.776;37.496;2022-11-14T09:00:17;100720.19;;;6.99;49.22
54806;BME280;62866;55.776;37.496;2022-11-14T09:02:42;100726.44;;;5.62;50.16
54806;BME280;62866;55.776;37.496;2022-11-14T09:05:08;100728.66;;;4.64;52.95
54806;BME280;62866;55.776;37.496;2022-11-14T09:07:33;100726.75;;;3.69;51.43
54806;BME280;62866;55.776;37.496;2022-11-14T09:09:58;100724.91;;;3.02;54.25
54806;BME280;62866;55.776;37.496;2022-11-14T09:12:24;100731.91;;;2.68;54.71
54806;BME280;62866;55.776;37.496;2022-11-14T09:14:49;100730.31;;;2.55;55.46
54806;BME280;62866;55.776;37.496;2022-11-14T09:17:14;100728.44;;;2.33;54.82
54806;BME280;62866;55.776;37.496;2022-11-14T09:19:40;100734.97;;;2.16;55.17
54806;BME280;62866;55.776;37.496;2022-11-14T09:22:05;100735.00;;;2.04;55.63
54806;BME280;62866;55.776;37.496;2022-11-14T09:24:31;100737.13;;;1.99;56.08
54806;BME280;62866;55.776;37.496;2022-11-14T09:26:56;100725.63;;;2.00;55.76
54806;BME280;62866;55.776;37.496;2022-11-14T09:29:21;100725.75;;;1.98;56.55
54806;BME280;62866;55.776;37.496;2022-11-14T09:31:47;100727.19;;;2.02;56.01
54806;BME280;62866;55.776;37.496;2022-11-14T09:34:12;100727.00;;;1.92;56.42
54806;BME280;62866;55.776;37.496;2022-11-14T09:36:38;100719.53;;;1.86;56.82
54806;BME280;62866;55.776;37.496;2022-11-14T09:39:03;100722.72;;;1.92;57.05
54806;BME280;62866;55.776;37.496;2022-11-14T09:46:42;100739.38;;;1.92;57.26
54806;BME280;62866;55.776;37.496;2022-11-14T09:49:18;100736.72;;;1.92;56.99
54806;BME280;62866;55.776;37.496;2022-11-14T09:51:49;100739.75;;;1.99;57.34
54806;BME280;62866;55.776;37.496;2022-11-14T09:54:19;100736.69;;;2.05;57.44
54806;BME280;62866;55.776;37.496;2022-11-14T09:56:45;100734.50;;;1.99;57.66
54806;BME280;62866;55.776;37.496;2022-11-14T09:59:11;100734.81;;;1.94;57.89
54806;BME280;62866;55.776;37.496;2022-11-14T10:06:50;100725.38;;;1.79;58.07
54806;BME280;62866;55.776;37.496;2022-11-14T10:09:41;100723.88;;;1.87;57.82
54806;BME280;62866;55.776;37.496;2022-11-14T10:12:11;100720.78;;;1.94;58.46
54806;BME280;62866;55.776;37.496;2022-11-14T10:22:37;100728.03;;;2.03;58.24
54806;BME280;62866;55.776;37.496;2022-11-14T10:27:44;100713.69;;;2.07;58.48
54806;BME280;62866;55.776;37.496;2022-11-14T10:30:14;100712.66;;;1.97;58.47
54806;BME280;62866;55.776;37.496;2022-11-14T10:38:00;100713.41;;;1.99;58.23
54806;BME280;62866;55.776;37.496;2022-11-14T10:40:30;100708.97;;;1.99;59.02
54806;BME280;62866;55.776;37.496;2022-11-14T10:43:02;100704.28;;;2.03;58.16
54806;BME280;62866;55.776;37.496;2022-11-14T10:45:41;100715.78;;;2.02;57.91
54806;BME280;62866;55.776;37.496;2022-11-14T10:48:09;100706.53;;;1.96;58.01
54806;BME280;62866;55.776;37.496;2022-11-14T10:53:28;100702.16;;;1.84;58.30
54806;BME280;62866;55.776;37.496;2022-11-14T10:55:58;100707.09;;;1.88;58.56
54806;BME280;62866;55.776;37.496;2022-11-14T10:58:24;100703.97;;;1.83;58.50
54806;BME280;62866;55.776;37.496;2022-11-14T11:00:49;100707.19;;;1.87;58.92
54806;BME280;62866;55.776;37.496;2022-11-14T11:03:14;100704.09;;;1.93;58.86
54806;BME280;62866;55.776;37.496;2022-11-14T11:05:50;100711.31;;;1.91;58.26
54806;BME280;62866;55.776;37.496;2022-11-14T11:08:20;100699.19;;;1.88;58.84
54806;BME280;62866;55.776;37.496;2022-11-14T11:11:04;100700.88;;;1.89;58.34
54806;BME280;62866;55.776;37.496;2022-11-14T11:13:53;100708.44;;;1.94;58.83
54806;BME280;62866;55.776;37.496;2022-11-14T11:16:23;100704.66;;;1.85;58.49
54806;BME280;62866;55.776;37.496;2022-11-14T11:18:49;100702.88;;;1.86;58.42
54806;BME280;62866;55.776;37.496;2022-11-14T11:21:15;100695.41;;;1.80;58.46
54806;BME280;62866;55.776;37.496;2022-11-14T11:24:15;100699.22;;;1.76;58.99
54806;BME280;62866;55.776;37.496;2022-11-14T11:26:32;100702.19;;;1.71;58.47
54806;BME280;62866;55.776;37.496;2022-11-14T11:31:43;100710.19;;;1.70;58.91
54806;BME280;62866;55.776;37.496;2022-11-14T11:34:12;100698.31;;;1.64;58.49
54806;BME280;62866;55.776;37.496;2022-11-14T11:36:39;100711.38;;;1.66;59.15
54806;BME280;62866;55.776;37.496;2022-11-14T11:39:08;100706.41;;;1.74;58.61
54806;BME280;62866;55.776;37.496;2022-11-14T11:41:39;100713.03;;;1.79;58.62
54806;BME280;62866;55.776;37.496;2022-11-14T11:44:09;100705.63;;;1.84;58.96
54806;BME280;62866;55.776;37.496;2022-11-14T11:46:52;100709.22;;;1.83;58.26
54806;BME280;62866;55.776;37.496;2022-11-14T11:49:27;100707.53;;;1.82;58.37
54806;BME280;62866;55.776;37.496;2022-11-14T11:52:00;100707.25;;;1.74;58.10
54806;BME280;62866;55.776;37.496;2022-11-14T11:57:17;100708.69;;;1.78;58.41
54806;BME280;62866;55.776;37.496;2022-11-14T11:59:44;100703.53;;;1.77;58.45
54806;BME280;62866;55.776;37.496;2022-11-14T12:04:45;100702.69;;;1.76;58.71
54806;BME280;62866;55.776;37.496;2022-11-14T12:09:37;100704.09;;;1.69;58.30
54806;BME280;62866;55.776;37.496;2022-11-14T12:12:04;100709.59;;;1.66;58.50
54806;BME280;62866;55.776;37.496;2022-11-14T12:19:39;100710.00;;;1.60;58.20
54806;BME280;62866;55.776;37.496;2022-11-14T12:30:16;100712.53;;;1.62;58.29
54806;BME280;62866;55.776;37.496;2022-11-14T12:35:09;100708.03;;;1.51;58.89
54806;BME280;62866;55.776;37.496;2022-11-14T12:37:42;100702.34;;;1.44;58.44
54806;BME280;62866;55.776;37.496;2022-11-14T12:40:17;100706.69;;;1.33;59.43
54806;BME280;62866;55.776;37.496;2022-11-14T12:42:46;100707.75;;;1.30;59.60
54806;BME280;62866;55.776;37.496;2022-11-14T12:46:13;100708.19;;;1.24;59.65
54806;BME280;62866;55.776;37.496;2022-11-14T12:48:14;100704.91;;;1.21;59.52
54806;BME280;62866;55.776;37.496;2022-11-14T12:50:40;100719.03;;;1.20;59.79
54806;BME280;62866;55.776;37.496;2022-11-14T12:53:35;100707.13;;;1.14;59.62
54806;BME280;62866;55.776;37.496;2022-11-14T13:04:05;100708.50;;;0.94;59.98
54806;BME280;62866;55.776;37.496;2022-11-14T13:06:50;100713.25;;;0.89;60.37
54806;BME280;62866;55.776;37.496;2022-11-14T13:11:49;100710.91;;;0.72;60.94
54806;BME280;62866;55.776;37.496;2022-11-14T13:14:49;100707.84;;;0.65;61.37
54806;BME280;62866;55.776;37.496;2022-11-14T13:17:33;100712.97;;;0.54;61.38
54806;BME280;62866;55.776;37.496;2022-11-14T13:23:04;100714.34;;;0.47;61.42
54806;BME280;62866;55.776;37.496;2022-11-14T13:25:30;100715.47;;;0.43;61.49
54806;BME280;62866;55.776;37.496;2022-11-14T13:27:55;100714.19;;;0.36;61.51
54806;BME280;62866;55.776;37.496;2022-11-14T13:33:42;100709.09;;;0.20;62.00
54806;BME280;62866;55.776;37.496;2022-11-14T13:36:10;100706.88;;;0.14;61.90
54806;BME280;62866;55.776;37.496;2022-11-14T13:48:47;100706.56;;;-0.08;62.74
54806;BME280;62866;55.776;37.496;2022-11-14T13:51:20;100710.25;;;-0.11;62.80
54806;BME280;62866;55.776;37.496;2022-11-14T13:53:47;100705.00;;;-0.11;62.98
54806;BME280;62866;55.776;37.496;2022-11-14T14:01:41;100714.00;;;-0.15;63.40
54806;BME280;62866;55.776;37.496;2022-11-14T14:10:11;100711.09;;;-0.24;63.91
54806;BME280;62866;55.776;37.496;2022-11-14T14:28:01;100704.94;;;-0.38;64.78
54806;BME280;62866;55.776;37.496;2022-11-14T14:30:29;100714.44;;;-0.35;64.47
54806;BME280;62866;55.776;37.496;2022-11-14T14:35:32;100709.28;;;-0.36;64.69
54806;BME280;62866;55.776;37.496;2022-11-14T14:37:58;100715.56;;;-0.39;64.88